sensor_id;sensor_type;location;lat;lon;timestamp;temperature;humidity
12568;DHT22;6349;50.904;6.136;2023-02-28T00:02:00;1.30;99.90
12568;DHT22;6349;50.904;6.136;2023-02-28T00:04:01;1.30;99.90
12568;DHT22;6349;50.904;6.136;2023-02-28T00:06:03;1.20;99.90
12568;DHT22;6349;50.904;6.136;2023-02-28T00:08:05;1.10;99.90
12568;DHT22;6349;50.904;6.136;2023-02-28T00:10:07;1.10;99.90
12568;DHT22;6349;50.904;6.136;2023-02-28T00:12:08;1.10;99.90
12568;DHT22;6349;50.904;6.136;2023-02-28T00:14:10;1.10;99.90
12568;DHT22;6349;50.904;6.136;2023-02-28T00:16:15;1.10;99.90
12568;DHT22;6349;50.904;6.136;2023-02-28T00:18:16;1.10;99.90
12568;DHT22;6349;50.904;6.136;2023-02-28T00:20:17;1.10;99.90
12568;DHT22;6349;50.904;6.136;2023-02-28T00:22:20;1.00;99.90
12568;DHT22;6349;50.904;6.136;2023-02-28T00:24:21;1.10;99.90
12568;DHT22;6349;50.904;6.136;2023-02-28T00:26:22;1.10;99.90
12568;DHT22;6349;50.904;6.136;2023-02-28T00:28:23;1.00;99.90
12568;DHT22;6349;50.904;6.136;2023-02-28T00:30:24;1.00;99.90
12568;DHT22;6349;50.904;6.136;2023-02-28T00:32:24;1.00;99.90
12568;DHT22;6349;50.904;6.136;2023-02-28T00:34:25;1.10;99.90
12568;DHT22;6349;50.904;6.136;2023-02-28T00:36:26;1.10;99.90
12568;DHT22;6349;50.904;6.136;2023-02-28T00:38:26;1.10;99.90
12568;DHT22;6349;50.904;6.136;2023-02-28T00:40:27;1.10;99.90
12568;DHT22;6349;50.904;6.136;2023-02-28T00:42:28;1.10;99.90
12568;DHT22;6349;50.904;6.136;2023-02-28T00:44:29;1.10;99.90
12568;DHT22;6349;50.904;6.136;2023-02-28T00:46:29;1.10;99.90
12568;DHT22;6349;50.904;6.136;2023-02-28T00:48:30;1.10;99.90
12568;DHT22;6349;50.904;6.136;2023-02-28T00:50:31;1.20;99.90
12568;DHT22;6349;50.904;6.136;2023-02-28T00:52:34;1.10;99.90
12568;DHT22;6349;50.904;6.136;2023-02-28T00:54:34;1.10;99.90
12568;DHT22;6349;50.904;6.136;2023-02-28T00:56:35;1.30;99.90
12568;DHT22;6349;50.904;6.136;2023-02-28T00:58:36;1.20;99.90
12568;DHT22;6349;50.904;6.136;2023-02-28T01:00:36;1.20;99.90
12568;DHT22;6349;50.904;6.136;2023-02-28T01:02:37;1.10;99.90
12568;DHT22;6349;50.904;6.136;2023-02-28T01:04:38;1.10;99.90
12568;DHT22;6349;50.904;6.136;2023-02-28T01:06:38;1.10;99.90
12568;DHT22;6349;50.904;6.136;2023-02-28T01:08:39;1.10;99.90
12568;DHT22;6349;50.904;6.136;2023-02-28T01:10:41;1.00;99.90
12568;DHT22;6349;50.904;6.136;2023-02-28T01:12:42;0.90;99.90
12568;DHT22;6349;50.904;6.136;2023-02-28T01:14:43;1.00;99.90
12568;DHT22;6349;50.904;6.136;2023-02-28T01:16:43;1.00;99.90
12568;DHT22;6349;50.904;6.136;2023-02-28T01:18:44;1.10;99.90
12568;DHT22;6349;50.904;6.136;2023-02-28T01:20:45;1.10;99.90
12568;DHT22;6349;50.904;6.136;2023-02-28T01:22:46;1.10;99.90
12568;DHT22;6349;50.904;6.136;2023-02-28T01:24:47;1.10;99.90
12568;DHT22;6349;50.904;6.136;2023-02-28T01:26:48;1.10;99.90
12568;DHT22;6349;50.904;6.136;2023-02-28T01:28:50;1.10;99.90
12568;DHT22;6349;50.904;6.136;2023-02-28T01:30:51;1.10;99.90
12568;DHT22;6349;50.904;6.136;2023-02-28T01:32:52;1.10;99.90
12568;DHT22;6349;50.904;6.136;2023-02-28T01:34:54;1.00;99.90
12568;DHT22;6349;50.904;6.136;2023-02-28T01:36:54;1.10;99.90
12568;DHT22;6349;50.904;6.136;2023-02-28T01:38:55;1.10;99.90
12568;DHT22;6349;50.904;6.136;2023-02-28T01:40:56;1.00;99.90
12568;DHT22;6349;50.904;6.136;2023-02-28T01:42:57;0.90;99.90
12568;DHT22;6349;50.904;6.136;2023-02-28T01:45:20;1.00;99.90
12568;DHT22;6349;50.904;6.136;2023-02-28T01:47:22;1.00;99.90
12568;DHT22;6349;50.904;6.136;2023-02-28T01:49:25;0.90;99.90
12568;DHT22;6349;50.904;6.136;2023-02-28T01:51:33;0.90;99.90
12568;DHT22;6349;50.904;6.136;2023-02-28T01:53:39;0.90;99.90
12568;DHT22;6349;50.904;6.136;2023-02-28T01:55:43;1.00;99.90
12568;DHT22;6349;50.904;6.136;2023-02-28T01:57:50;0.90;99.90
12568;DHT22;6349;50.904;6.136;2023-02-28T01:59:57;0.90;99.90
12568;DHT22;6349;50.904;6.136;2023-02-28T02:01:58;0.90;99.90
12568;DHT22;6349;50.904;6.136;2023-02-28T02:04:02;0.90;99.90
12568;DHT22;6349;50.904;6.136;2023-02-28T02:06:04;0.90;99.90
12568;DHT22;6349;50.904;6.136;2023-02-28T02:08:08;0.90;99.90
12568;DHT22;6349;50.904;6.136;2023-02-28T02:10:16;0.90;99.90
12568;DHT22;6349;50.904;6.136;2023-02-28T02:12:31;0.90;99.90
12568;DHT22;6349;50.904;6.136;2023-02-28T02:14:49;0.90;99.90
12568;DHT22;6349;50.904;6.136;2023-02-28T02:22:34;0.70;99.90
12568;DHT22;6349;50.904;6.136;2023-02-28T02:33:06;0.40;99.90
12568;DHT22;6349;50.904;6.136;2023-02-28T02:37:21;0.40;99.90
12568;DHT22;6349;50.904;6.136;2023-02-28T02:39:36;0.40;99.90
12568;DHT22;6349;50.904;6.136;2023-02-28T02:41:52;0.40;99.90
12568;DHT22;6349;50.904;6.136;2023-02-28T02:44:02;0.40;99.90
12568;DHT22;6349;50.904;6.136;2023-02-28T02:46:10;0.30;99.90
12568;DHT22;6349;50.904;6.136;2023-02-28T02:48:18;0.40;99.90
12568;DHT22;6349;50.904;6.136;2023-02-28T02:50:26;0.30;99.90
12568;DHT22;6349;50.904;6.136;2023-02-28T02:52:37;0.30;99.90
12568;DHT22;6349;50.904;6.136;2023-02-28T02:54:41;0.40;99.90
12568;DHT22;6349;50.904;6.136;2023-02-28T02:56:46;0.40;99.90
12568;DHT22;6349;50.904;6.136;2023-02-28T02:58:49;0.40;99.90
12568;DHT22;6349;50.904;6.136;2023-02-28T03:00:54;0.40;99.90
12568;DHT22;6349;50.904;6.136;2023-02-28T03:02:57;0.50;99.90
12568;DHT22;6349;50.904;6.136;2023-02-28T03:05:01;0.50;99.90
12568;DHT22;6349;50.904;6.136;2023-02-28T03:07:03;0.50;99.90
12568;DHT22;6349;50.904;6.136;2023-02-28T03:09:04;0.60;99.90
12568;DHT22;6349;50.904;6.136;2023-02-28T03:11:12;0.70;99.90
12568;DHT22;6349;50.904;6.136;2023-02-28T03:13:38;0.70;99.90
12568;DHT22;6349;50.904;6.136;2023-02-28T03:15:57;0.80;99.90
12568;DHT22;6349;50.904;6.136;2023-02-28T03:18:07;0.80;99.90
12568;DHT22;6349;50.904;6.136;2023-02-28T03:22:52;0.80;99.90
12568;DHT22;6349;50.904;6.136;2023-02-28T03:28:00;0.70;99.90
12568;DHT22;6349;50.904;6.136;2023-02-28T03:30:10;0.60;99.90
12568;DHT22;6349;50.904;6.136;2023-02-28T03:32:26;0.50;99.90
12568;DHT22;6349;50.904;6.136;2023-02-28T03:34:37;0.50;99.90
12568;DHT22;6349;50.904;6.136;2023-02-28T03:36:42;0.50;99.90
12568;DHT22;6349;50.904;6.136;2023-02-28T03:38:48;0.40;99.90
12568;DHT22;6349;50.904;6.136;2023-02-28T03:40:57;0.40;99.90
12568;DHT22;6349;50.904;6.136;2023-02-28T03:43:07;0.30;99.90
12568;DHT22;6349;50.904;6.136;2023-02-28T03:45:15;0.30;99.90
12568;DHT22;6349;50.904;6.136;2023-02-28T03:47:24;0.20;99.90
12568;DHT22;6349;50.904;6.136;2023-02-28T03:49:32;0.20;99.90
12568;DHT22;6349;50.904;6.136;2023-02-28T03:51:35;0.20;99.90
12568;DHT22;6349;50.904;6.136;2023-02-28T03:53:40;0.10;99.90
12568;DHT22;6349;50.904;6.136;2023-02-28T03:55:45;0.20;99.90
12568;DHT22;6349;50.904;6.136;2023-02-28T04:00:32;0.20;99.90
12568;DHT22;6349;50.904;6.136;2023-02-28T04:02:34;0.20;99.90
12568;DHT22;6349;50.904;6.136;2023-02-28T04:04:35;0.30;99.90
12568;DHT22;6349;50.904;6.136;2023-02-28T04:06:36;0.30;99.90
12568;DHT22;6349;50.904;6.136;2023-02-28T04:08:37;0.40;99.90
12568;DHT22;6349;50.904;6.136;2023-02-28T04:10:38;0.40;99.90
12568;DHT22;6349;50.904;6.136;2023-02-28T04:12:39;0.40;99.90
12568;DHT22;6349;50.904;6.136;2023-02-28T04:14:40;0.50;99.90
12568;DHT22;6349;50.904;6.136;2023-02-28T04:16:41;0.50;99.90
12568;DHT22;6349;50.904;6.136;2023-02-28T04:18:42;0.60;99.90
12568;DHT22;6349;50.904;6.136;2023-02-28T04:20:43;0.60;99.90
12568;DHT22;6349;50.904;6.136;2023-02-28T04:22:44;0.60;99.90
12568;DHT22;6349;50.904;6.136;2023-02-28T04:24:44;0.60;99.90
12568;DHT22;6349;50.904;6.136;2023-02-28T04:26:47;0.70;99.90
12568;DHT22;6349;50.904;6.136;2023-02-28T04:28:48;0.70;99.90
12568;DHT22;6349;50.904;6.136;2023-02-28T04:30:58;0.70;99.90
12568;DHT22;6349;50.904;6.136;2023-02-28T04:32:59;0.70;99.90
12568;DHT22;6349;50.904;6.136;2023-02-28T04:35:00;0.70;99.90
12568;DHT22;6349;50.904;6.136;2023-02-28T04:37:02;0.70;99.90
12568;DHT22;6349;50.904;6.136;2023-02-28T04:39:03;0.70;99.90
12568;DHT22;6349;50.904;6.136;2023-02-28T04:41:05;0.80;99.90
12568;DHT22;6349;50.904;6.136;2023-02-28T04:43:05;0.70;99.90
12568;DHT22;6349;50.904;6.136;2023-02-28T04:45:06;0.70;99.90
12568;DHT22;6349;50.904;6.136;2023-02-28T04:47:10;0.80;99.90
12568;DHT22;6349;50.904;6.136;2023-02-28T04:49:11;0.80;99.90
12568;DHT22;6349;50.904;6.136;2023-02-28T04:51:14;0.80;99.90
12568;DHT22;6349;50.904;6.136;2023-02-28T04:53:15;0.80;99.90
12568;DHT22;6349;50.904;6.136;2023-02-28T04:55:15;0.80;99.90
12568;DHT22;6349;50.904;6.136;2023-02-28T04:57:16;0.80;99.90
12568;DHT22;6349;50.904;6.136;2023-02-28T04:59:17;0.70;99.90
12568;DHT22;6349;50.904;6.136;2023-02-28T05:01:26;0.70;99.90
12568;DHT22;6349;50.904;6.136;2023-02-28T05:03:27;0.70;99.90
12568;DHT22;6349;50.904;6.136;2023-02-28T05:05:27;0.70;99.90
12568;DHT22;6349;50.904;6.136;2023-02-28T05:07:28;0.60;99.90
12568;DHT22;6349;50.904;6.136;2023-02-28T05:09:29;0.50;99.90
12568;DHT22;6349;50.904;6.136;2023-02-28T05:11:32;0.40;99.90
12568;DHT22;6349;50.904;6.136;2023-02-28T05:13:37;0.40;99.90
12568;DHT22;6349;50.904;6.136;2023-02-28T05:15:38;0.30;99.90
12568;DHT22;6349;50.904;6.136;2023-02-28T05:17:39;0.30;99.90
12568;DHT22;6349;50.904;6.136;2023-02-28T05:19:40;0.30;99.90
12568;DHT22;6349;50.904;6.136;2023-02-28T05:21:48;0.40;99.90
12568;DHT22;6349;50.904;6.136;2023-02-28T05:23:50;0.40;99.90
12568;DHT22;6349;50.904;6.136;2023-02-28T05:25:51;0.40;99.90
12568;DHT22;6349;50.904;6.136;2023-02-28T05:27:52;0.50;99.90
12568;DHT22;6349;50.904;6.136;2023-02-28T05:29:53;0.50;99.90
12568;DHT22;6349;50.904;6.136;2023-02-28T05:31:53;0.60;99.90
12568;DHT22;6349;50.904;6.136;2023-02-28T05:33:54;0.50;99.90
12568;DHT22;6349;50.904;6.136;2023-02-28T05:35:55;0.50;99.90
12568;DHT22;6349;50.904;6.136;2023-02-28T05:37:56;0.40;99.90
12568;DHT22;6349;50.904;6.136;2023-02-28T05:39:57;0.40;99.90
12568;DHT22;6349;50.904;6.136;2023-02-28T05:41:57;0.40;99.90
12568;DHT22;6349;50.904;6.136;2023-02-28T05:43:58;0.40;99.90
12568;DHT22;6349;50.904;6.136;2023-02-28T05:46:02;0.30;99.90
12568;DHT22;6349;50.904;6.136;2023-02-28T05:48:04;0.30;99.90
12568;DHT22;6349;50.904;6.136;2023-02-28T05:50:05;0.30;99.90
12568;DHT22;6349;50.904;6.136;2023-02-28T05:52:06;0.30;99.90
12568;DHT22;6349;50.904;6.136;2023-02-28T05:54:07;0.30;99.90
12568;DHT22;6349;50.904;6.136;2023-02-28T05:56:08;0.30;99.90
12568;DHT22;6349;50.904;6.136;2023-02-28T05:58:09;0.30;99.90
12568;DHT22;6349;50.904;6.136;2023-02-28T06:00:10;0.20;99.90
12568;DHT22;6349;50.904;6.136;2023-02-28T06:02:13;0.20;99.90
12568;DHT22;6349;50.904;6.136;2023-02-28T06:04:15;0.20;99.90
12568;DHT22;6349;50.904;6.136;2023-02-28T06:06:18;0.20;99.90
12568;DHT22;6349;50.904;6.136;2023-02-28T06:08:19;0.10;99.90
12568;DHT22;6349;50.904;6.136;2023-02-28T06:10:19;0.00;99.90
12568;DHT22;6349;50.904;6.136;2023-02-28T06:12:20;0.00;99.90
12568;DHT22;6349;50.904;6.136;2023-02-28T06:14:21;-0.10;99.90
12568;DHT22;6349;50.904;6.136;2023-02-28T06:16:22;-0.10;99.90
12568;DHT22;6349;50.904;6.136;2023-02-28T06:18:22;-0.20;99.90
12568;DHT22;6349;50.904;6.136;2023-02-28T06:20:24;-0.10;99.90
12568;DHT22;6349;50.904;6.136;2023-02-28T06:22:25;-0.10;99.90
12568;DHT22;6349;50.904;6.136;2023-02-28T06:24:26;-0.10;99.90
12568;DHT22;6349;50.904;6.136;2023-02-28T06:26:28;0.00;99.90
12568;DHT22;6349;50.904;6.136;2023-02-28T06:28:29;0.00;99.90
12568;DHT22;6349;50.904;6.136;2023-02-28T06:30:29;0.00;99.90
12568;DHT22;6349;50.904;6.136;2023-02-28T06:32:31;-0.10;99.90
12568;DHT22;6349;50.904;6.136;2023-02-28T06:34:32;-0.10;99.90
12568;DHT22;6349;50.904;6.136;2023-02-28T06:36:34;-0.10;99.90
12568;DHT22;6349;50.904;6.136;2023-02-28T06:38:34;-0.20;99.90
12568;DHT22;6349;50.904;6.136;2023-02-28T06:40:35;-0.20;99.90
12568;DHT22;6349;50.904;6.136;2023-02-28T06:42:36;-0.20;99.90
12568;DHT22;6349;50.904;6.136;2023-02-28T06:44:38;-0.20;99.90
12568;DHT22;6349;50.904;6.136;2023-02-28T06:46:40;-0.20;99.90
12568;DHT22;6349;50.904;6.136;2023-02-28T06:48:43;-0.20;99.90
12568;DHT22;6349;50.904;6.136;2023-02-28T06:50:44;-0.20;99.90
12568;DHT22;6349;50.904;6.136;2023-02-28T06:52:44;-0.20;99.90
12568;DHT22;6349;50.904;6.136;2023-02-28T06:54:45;-0.20;99.90
12568;DHT22;6349;50.904;6.136;2023-02-28T06:56:46;-0.20;99.90
12568;DHT22;6349;50.904;6.136;2023-02-28T06:58:49;-0.20;99.90
12568;DHT22;6349;50.904;6.136;2023-02-28T07:00:51;-0.30;99.90
12568;DHT22;6349;50.904;6.136;2023-02-28T07:02:52;-0.30;99.90
12568;DHT22;6349;50.904;6.136;2023-02-28T07:04:55;-0.30;99.90
12568;DHT22;6349;50.904;6.136;2023-02-28T07:06:55;-0.40;99.90
12568;DHT22;6349;50.904;6.136;2023-02-28T07:08:57;-0.40;99.90
12568;DHT22;6349;50.904;6.136;2023-02-28T07:10:58;-0.40;99.90
12568;DHT22;6349;50.904;6.136;2023-02-28T07:12:59;-0.40;99.90
12568;DHT22;6349;50.904;6.136;2023-02-28T07:15:00;-0.40;99.90
12568;DHT22;6349;50.904;6.136;2023-02-28T07:17:01;-0.30;99.90
12568;DHT22;6349;50.904;6.136;2023-02-28T07:19:02;-0.30;99.90
12568;DHT22;6349;50.904;6.136;2023-02-28T07:21:04;-0.30;99.90
12568;DHT22;6349;50.904;6.136;2023-02-28T07:23:05;-0.30;99.90
12568;DHT22;6349;50.904;6.136;2023-02-28T07:25:06;-0.30;99.90
12568;DHT22;6349;50.904;6.136;2023-02-28T07:27:06;-0.30;99.90
12568;DHT22;6349;50.904;6.136;2023-02-28T07:29:07;-0.30;99.90
12568;DHT22;6349;50.904;6.136;2023-02-28T07:31:09;-0.30;99.90
12568;DHT22;6349;50.904;6.136;2023-02-28T07:33:10;-0.30;99.90
12568;DHT22;6349;50.904;6.136;2023-02-28T07:35:10;-0.20;99.90
12568;DHT22;6349;50.904;6.136;2023-02-28T07:37:11;-0.20;99.90
12568;DHT22;6349;50.904;6.136;2023-02-28T07:39:12;-0.10;99.90
12568;DHT22;6349;50.904;6.136;2023-02-28T07:41:12;-0.10;99.90
12568;DHT22;6349;50.904;6.136;2023-02-28T07:43:13;-0.10;99.90
12568;DHT22;6349;50.904;6.136;2023-02-28T07:45:13;0.00;99.90
12568;DHT22;6349;50.904;6.136;2023-02-28T07:47:14;0.00;99.90
12568;DHT22;6349;50.904;6.136;2023-02-28T07:49:15;0.10;99.90
12568;DHT22;6349;50.904;6.136;2023-02-28T07:51:15;0.10;99.90
12568;DHT22;6349;50.904;6.136;2023-02-28T07:53:16;0.20;99.90
12568;DHT22;6349;50.904;6.136;2023-02-28T07:55:17;0.30;99.90
12568;DHT22;6349;50.904;6.136;2023-02-28T07:57:18;0.30;99.90
12568;DHT22;6349;50.904;6.136;2023-02-28T07:59:19;0.30;99.90
12568;DHT22;6349;50.904;6.136;2023-02-28T08:01:19;0.40;99.90
12568;DHT22;6349;50.904;6.136;2023-02-28T08:03:21;0.50;99.90
12568;DHT22;6349;50.904;6.136;2023-02-28T08:05:22;0.50;99.90
12568;DHT22;6349;50.904;6.136;2023-02-28T08:07:23;0.60;99.90
12568;DHT22;6349;50.904;6.136;2023-02-28T08:09:24;0.60;99.90
12568;DHT22;6349;50.904;6.136;2023-02-28T08:11:25;0.60;99.90
12568;DHT22;6349;50.904;6.136;2023-02-28T08:13:27;0.60;99.90
12568;DHT22;6349;50.904;6.136;2023-02-28T08:15:28;0.70;99.90
12568;DHT22;6349;50.904;6.136;2023-02-28T08:17:29;0.70;99.90
12568;DHT22;6349;50.904;6.136;2023-02-28T08:19:29;0.80;99.90
12568;DHT22;6349;50.904;6.136;2023-02-28T08:21:30;0.80;99.90
12568;DHT22;6349;50.904;6.136;2023-02-28T08:23:30;0.90;99.90
12568;DHT22;6349;50.904;6.136;2023-02-28T08:25:33;0.80;99.90
12568;DHT22;6349;50.904;6.136;2023-02-28T08:27:35;0.90;99.90
12568;DHT22;6349;50.904;6.136;2023-02-28T08:29:37;1.00;99.90
12568;DHT22;6349;50.904;6.136;2023-02-28T08:31:38;1.00;99.90
12568;DHT22;6349;50.904;6.136;2023-02-28T08:33:40;1.00;99.90
12568;DHT22;6349;50.904;6.136;2023-02-28T08:35:41;1.10;99.90
12568;DHT22;6349;50.904;6.136;2023-02-28T08:37:41;1.10;99.90
12568;DHT22;6349;50.904;6.136;2023-02-28T08:39:42;1.10;99.90
12568;DHT22;6349;50.904;6.136;2023-02-28T08:41:42;1.10;99.90
12568;DHT22;6349;50.904;6.136;2023-02-28T08:43:44;1.10;99.90
12568;DHT22;6349;50.904;6.136;2023-02-28T08:45:45;1.20;99.90
12568;DHT22;6349;50.904;6.136;2023-02-28T08:47:45;1.20;99.90
12568;DHT22;6349;50.904;6.136;2023-02-28T08:49:48;1.20;99.90
12568;DHT22;6349;50.904;6.136;2023-02-28T08:52:06;1.30;99.90
12568;DHT22;6349;50.904;6.136;2023-02-28T08:54:10;1.30;99.90
12568;DHT22;6349;50.904;6.136;2023-02-28T08:56:14;1.50;99.90
12568;DHT22;6349;50.904;6.136;2023-02-28T08:58:14;1.40;99.90
12568;DHT22;6349;50.904;6.136;2023-02-28T09:00:15;1.40;99.90
12568;DHT22;6349;50.904;6.136;2023-02-28T09:02:16;1.40;99.90
12568;DHT22;6349;50.904;6.136;2023-02-28T09:04:16;1.40;99.90
12568;DHT22;6349;50.904;6.136;2023-02-28T09:06:19;1.50;99.90
12568;DHT22;6349;50.904;6.136;2023-02-28T09:08:20;1.50;99.90
12568;DHT22;6349;50.904;6.136;2023-02-28T09:10:20;1.50;99.90
12568;DHT22;6349;50.904;6.136;2023-02-28T09:12:25;1.60;99.90
12568;DHT22;6349;50.904;6.136;2023-02-28T09:14:26;1.70;99.90
12568;DHT22;6349;50.904;6.136;2023-02-28T09:16:27;1.70;99.90
12568;DHT22;6349;50.904;6.136;2023-02-28T09:18:27;1.80;99.90
12568;DHT22;6349;50.904;6.136;2023-02-28T09:20:28;1.80;99.90
12568;DHT22;6349;50.904;6.136;2023-02-28T09:22:29;1.90;99.90
12568;DHT22;6349;50.904;6.136;2023-02-28T09:24:29;1.90;99.90
12568;DHT22;6349;50.904;6.136;2023-02-28T09:26:31;2.00;99.90
12568;DHT22;6349;50.904;6.136;2023-02-28T09:28:32;2.00;99.90
12568;DHT22;6349;50.904;6.136;2023-02-28T09:30:33;2.00;99.90
12568;DHT22;6349;50.904;6.136;2023-02-28T09:32:34;2.00;99.90
12568;DHT22;6349;50.904;6.136;2023-02-28T09:34:34;2.00;99.90
12568;DHT22;6349;50.904;6.136;2023-02-28T09:36:38;2.00;99.90
12568;DHT22;6349;50.904;6.136;2023-02-28T09:38:38;2.10;99.90
12568;DHT22;6349;50.904;6.136;2023-02-28T09:40:49;2.10;99.90
12568;DHT22;6349;50.904;6.136;2023-02-28T09:42:52;2.10;99.90
12568;DHT22;6349;50.904;6.136;2023-02-28T09:44:53;2.20;99.90
12568;DHT22;6349;50.904;6.136;2023-02-28T09:46:59;2.30;99.90
12568;DHT22;6349;50.904;6.136;2023-02-28T09:49:05;2.30;99.90
12568;DHT22;6349;50.904;6.136;2023-02-28T09:52:00;2.30;99.90
12568;DHT22;6349;50.904;6.136;2023-02-28T09:53:47;2.30;99.90
12568;DHT22;6349;50.904;6.136;2023-02-28T09:55:52;2.30;99.90
12568;DHT22;6349;50.904;6.136;2023-02-28T09:57:55;2.30;99.90
12568;DHT22;6349;50.904;6.136;2023-02-28T10:05:12;2.40;99.90
12568;DHT22;6349;50.904;6.136;2023-02-28T10:07:42;2.40;99.90
12568;DHT22;6349;50.904;6.136;2023-02-28T10:09:53;2.50;99.90
12568;DHT22;6349;50.904;6.136;2023-02-28T10:12:01;2.50;99.90
12568;DHT22;6349;50.904;6.136;2023-02-28T10:16:29;2.60;99.90
12568;DHT22;6349;50.904;6.136;2023-02-28T10:18:43;2.60;99.90
12568;DHT22;6349;50.904;6.136;2023-02-28T10:20:46;2.70;99.90
12568;DHT22;6349;50.904;6.136;2023-02-28T10:22:58;2.70;99.90
12568;DHT22;6349;50.904;6.136;2023-02-28T10:25:28;2.70;99.90
12568;DHT22;6349;50.904;6.136;2023-02-28T10:27:30;2.70;99.90
12568;DHT22;6349;50.904;6.136;2023-02-28T10:29:32;2.70;99.90
12568;DHT22;6349;50.904;6.136;2023-02-28T10:31:33;2.80;99.90
12568;DHT22;6349;50.904;6.136;2023-02-28T10:33:35;2.80;99.90
12568;DHT22;6349;50.904;6.136;2023-02-28T10:35:36;2.90;99.90
12568;DHT22;6349;50.904;6.136;2023-02-28T10:37:38;3.00;99.90
12568;DHT22;6349;50.904;6.136;2023-02-28T10:39:44;3.10;99.90
12568;DHT22;6349;50.904;6.136;2023-02-28T10:41:45;3.10;99.90
12568;DHT22;6349;50.904;6.136;2023-02-28T10:43:46;3.00;99.90
12568;DHT22;6349;50.904;6.136;2023-02-28T10:45:58;2.90;99.90
12568;DHT22;6349;50.904;6.136;2023-02-28T10:48:05;2.90;99.90
12568;DHT22;6349;50.904;6.136;2023-02-28T10:50:28;2.80;99.90
12568;DHT22;6349;50.904;6.136;2023-02-28T10:52:39;2.90;99.90
12568;DHT22;6349;50.904;6.136;2023-02-28T10:54:41;2.90;99.90
12568;DHT22;6349;50.904;6.136;2023-02-28T10:56:43;2.90;99.90
12568;DHT22;6349;50.904;6.136;2023-02-28T10:59:37;2.90;99.90
12568;DHT22;6349;50.904;6.136;2023-02-28T11:01:43;2.80;99.90
12568;DHT22;6349;50.904;6.136;2023-02-28T11:03:46;2.80;99.90
12568;DHT22;6349;50.904;6.136;2023-02-28T11:05:48;2.90;99.90
12568;DHT22;6349;50.904;6.136;2023-02-28T11:07:54;2.90;99.90
12568;DHT22;6349;50.904;6.136;2023-02-28T11:09:57;3.00;99.90
12568;DHT22;6349;50.904;6.136;2023-02-28T11:12:00;3.10;99.90
12568;DHT22;6349;50.904;6.136;2023-02-28T11:14:06;3.20;99.90
12568;DHT22;6349;50.904;6.136;2023-02-28T11:16:09;3.20;99.90
12568;DHT22;6349;50.904;6.136;2023-02-28T11:20:25;3.30;99.90
12568;DHT22;6349;50.904;6.136;2023-02-28T11:22:28;3.30;99.90
12568;DHT22;6349;50.904;6.136;2023-02-28T11:24:35;3.30;99.90
12568;DHT22;6349;50.904;6.136;2023-02-28T11:26:40;3.30;99.90
12568;DHT22;6349;50.904;6.136;2023-02-28T11:28:42;3.30;99.90
12568;DHT22;6349;50.904;6.136;2023-02-28T11:30:43;3.40;99.90
12568;DHT22;6349;50.904;6.136;2023-02-28T11:32:48;3.50;99.90
12568;DHT22;6349;50.904;6.136;2023-02-28T11:35:02;3.50;99.90
12568;DHT22;6349;50.904;6.136;2023-02-28T11:37:05;3.50;99.90
12568;DHT22;6349;50.904;6.136;2023-02-28T11:39:12;3.60;99.90
12568;DHT22;6349;50.904;6.136;2023-02-28T11:46:33;3.70;99.90
12568;DHT22;6349;50.904;6.136;2023-02-28T11:51:21;4.00;99.90
12568;DHT22;6349;50.904;6.136;2023-02-28T11:53:35;4.00;99.90
12568;DHT22;6349;50.904;6.136;2023-02-28T11:55:45;4.00;99.90
12568;DHT22;6349;50.904;6.136;2023-02-28T11:58:02;4.10;99.90
12568;DHT22;6349;50.904;6.136;2023-02-28T12:00:38;4.10;99.90
12568;DHT22;6349;50.904;6.136;2023-02-28T12:03:17;4.10;99.90
12568;DHT22;6349;50.904;6.136;2023-02-28T12:17:40;4.10;99.90
12568;DHT22;6349;50.904;6.136;2023-02-28T12:22:39;4.30;99.90
12568;DHT22;6349;50.904;6.136;2023-02-28T12:24:55;4.30;99.90
12568;DHT22;6349;50.904;6.136;2023-02-28T12:27:07;4.40;99.90
12568;DHT22;6349;50.904;6.136;2023-02-28T12:29:34;4.50;99.90
12568;DHT22;6349;50.904;6.136;2023-02-28T12:31:45;4.50;99.90
12568;DHT22;6349;50.904;6.136;2023-02-28T12:33:53;4.50;99.90
12568;DHT22;6349;50.904;6.136;2023-02-28T12:35:57;4.50;99.90
12568;DHT22;6349;50.904;6.136;2023-02-28T12:38:19;4.50;99.90
12568;DHT22;6349;50.904;6.136;2023-02-28T12:40:25;4.40;99.90
12568;DHT22;6349;50.904;6.136;2023-02-28T12:42:31;4.40;99.90
12568;DHT22;6349;50.904;6.136;2023-02-28T12:44:46;4.50;99.90
12568;DHT22;6349;50.904;6.136;2023-02-28T12:46:51;4.60;99.90
12568;DHT22;6349;50.904;6.136;2023-02-28T12:48:57;4.70;99.90
12568;DHT22;6349;50.904;6.136;2023-02-28T12:50:59;4.70;99.90
12568;DHT22;6349;50.904;6.136;2023-02-28T12:53:18;4.70;99.90
12568;DHT22;6349;50.904;6.136;2023-02-28T13:00:18;4.50;99.90
12568;DHT22;6349;50.904;6.136;2023-02-28T13:05:28;4.50;99.90
12568;DHT22;6349;50.904;6.136;2023-02-28T13:07:53;4.50;99.90
12568;DHT22;6349;50.904;6.136;2023-02-28T13:09:59;4.50;99.90
12568;DHT22;6349;50.904;6.136;2023-02-28T13:12:00;4.60;99.90
12568;DHT22;6349;50.904;6.136;2023-02-28T13:14:04;4.70;99.90
12568;DHT22;6349;50.904;6.136;2023-02-28T13:16:08;4.60;99.90
12568;DHT22;6349;50.904;6.136;2023-02-28T13:18:29;4.50;99.90
12568;DHT22;6349;50.904;6.136;2023-02-28T13:20:36;4.50;99.90
12568;DHT22;6349;50.904;6.136;2023-02-28T13:22:41;4.60;99.90
12568;DHT22;6349;50.904;6.136;2023-02-28T13:24:51;4.60;99.90
12568;DHT22;6349;50.904;6.136;2023-02-28T13:29:38;4.60;99.90
12568;DHT22;6349;50.904;6.136;2023-02-28T13:34:18;4.50;99.90
12568;DHT22;6349;50.904;6.136;2023-02-28T13:36:25;4.50;99.90
12568;DHT22;6349;50.904;6.136;2023-02-28T13:38:45;4.60;99.90
12568;DHT22;6349;50.904;6.136;2023-02-28T13:40:46;4.60;99.90
12568;DHT22;6349;50.904;6.136;2023-02-28T13:42:48;4.70;99.90
12568;DHT22;6349;50.904;6.136;2023-02-28T13:47:23;4.70;99.90
12568;DHT22;6349;50.904;6.136;2023-02-28T13:49:27;4.90;99.90
12568;DHT22;6349;50.904;6.136;2023-02-28T13:51:40;4.90;99.90
12568;DHT22;6349;50.904;6.136;2023-02-28T13:54:03;4.90;99.90
12568;DHT22;6349;50.904;6.136;2023-02-28T13:56:37;4.80;99.90
12568;DHT22;6349;50.904;6.136;2023-02-28T13:58:54;4.60;99.90
12568;DHT22;6349;50.904;6.136;2023-02-28T14:01:17;4.70;99.90
12568;DHT22;6349;50.904;6.136;2023-02-28T14:06:25;4.80;99.90
12568;DHT22;6349;50.904;6.136;2023-02-28T14:08:26;4.90;99.90
12568;DHT22;6349;50.904;6.136;2023-02-28T14:10:35;5.00;99.90
12568;DHT22;6349;50.904;6.136;2023-02-28T14:12:58;5.00;99.90
12568;DHT22;6349;50.904;6.136;2023-02-28T14:15:01;5.00;99.90
12568;DHT22;6349;50.904;6.136;2023-02-28T14:17:03;5.00;99.90
12568;DHT22;6349;50.904;6.136;2023-02-28T14:19:16;5.00;99.90
12568;DHT22;6349;50.904;6.136;2023-02-28T14:21:25;5.00;99.90
12568;DHT22;6349;50.904;6.136;2023-02-28T14:23:46;5.10;99.90
12568;DHT22;6349;50.904;6.136;2023-02-28T14:26:02;5.10;99.90
12568;DHT22;6349;50.904;6.136;2023-02-28T14:31:11;5.00;99.90
12568;DHT22;6349;50.904;6.136;2023-02-28T14:36:10;5.00;99.90
12568;DHT22;6349;50.904;6.136;2023-02-28T14:38:22;5.00;99.90
12568;DHT22;6349;50.904;6.136;2023-02-28T14:40:30;5.10;99.90
12568;DHT22;6349;50.904;6.136;2023-02-28T14:42:36;5.20;99.90
12568;DHT22;6349;50.904;6.136;2023-02-28T14:44:38;5.10;99.90
12568;DHT22;6349;50.904;6.136;2023-02-28T14:46:41;5.10;99.90
12568;DHT22;6349;50.904;6.136;2023-02-28T14:48:46;5.20;99.90
12568;DHT22;6349;50.904;6.136;2023-02-28T14:50:51;5.30;99.90
12568;DHT22;6349;50.904;6.136;2023-02-28T14:52:54;5.20;99.90
12568;DHT22;6349;50.904;6.136;2023-02-28T14:55:01;5.30;99.90